Time;durP1;ratioP1;P1;durP2;ratioP2;P2;SDS_P1;SDS_P2;PMS_P1;PMS_P2;Temp;Humidity;BMP_temperature;BMP_pressure;BME280_temperature;BME280_humidity;BME280_pressure;Samples;Min_cycle;Max_cycle;Signal;HPM_P1;HPM_P2
2024/03/01 00:02:03;;;;;;;6.45;4.40;;;;;;;;;;5059178;28;20197;-77
2024/03/01 00:04:29;;;;;;;5.80;3.85;;;;;;;;;;5069489;28;20737;-77
2024/03/01 00:06:54;;;;;;;6.88;3.80;;;;;;;;;;5066438;28;20632;-76
2024/03/01 00:09:20;;;;;;;10.65;4.43;;;;;;;;;;5066871;28;20552;-77
2024/03/01 00:11:46;;;;;;;5.85;3.42;;;;;;;;;;5061870;28;20189;-77
2024/03/01 00:14:11;;;;;;;5.78;3.50;;;;;;;;;;5077520;28;20367;-76
2024/03/01 00:16:37;;;;;;;6.65;4.10;;;;;;;;;;5064251;28;20312;-76
2024/03/01 00:19:02;;;;;;;6.15;3.30;;;;;;;;;;5067043;28;20205;-76
2024/03/01 00:21:28;;;;;;;7.32;3.40;;;;;;;;;;5064137;28;20216;-76
2024/03/01 00:23:53;;;;;;;7.25;3.90;;;;;;;;;;5063143;28;20200;-76
2024/03/01 00:26:19;;;;;;;5.47;3.90;;;;;;;;;;5066611;28;20187;-76
2024/03/01 00:28:44;;;;;;;6.88;3.33;;;;;;;;;;5061636;28;20188;-76
2024/03/01 00:31:10;;;;;;;7.30;3.72;;;;;;;;;;5059873;28;20197;-77
2024/03/01 00:33:35;;;;;;;6.72;4.32;;;;;;;;;;5063035;28;20200;-77
2024/03/01 00:36:01;;;;;;;5.25;3.60;;;;;;;;;;5047289;28;20679;-77
2024/03/01 00:38:26;;;;;;;6.85;4.03;;;;;;;;;;5064280;28;20574;-77
2024/03/01 00:40:52;;;;;;;7.43;4.03;;;;;;;;;;5044680;28;20190;-77
2024/03/01 00:43:18;;;;;;;5.82;3.90;;;;;;;;;;5058845;28;20229;-76
2024/03/01 00:45:44;;;;;;;6.68;4.38;;;;;;;;;;5062595;28;20208;-76
2024/03/01 00:48:11;;;;;;;7.50;4.57;;;;;;;;;;5067370;28;20184;-77
2024/03/01 00:50:37;;;;;;;6.07;4.35;;;;;;;;;;5065267;28;20203;-76
2024/03/01 00:53:04;;;;;;;7.80;4.80;;;;;;;;;;5067604;28;20177;-76
2024/03/01 00:55:32;;;;;;;6.50;4.53;;;;;;;;;;5070241;28;20671;-75
2024/03/01 00:57:58;;;;;;;7.78;4.70;;;;;;;;;;5062312;28;20198;-76
2024/03/01 01:00:24;;;;;;;7.82;4.88;;;;;;;;;;5063172;28;20234;-75
2024/03/01 01:02:50;;;;;;;7.28;4.60;;;;;;;;;;5061771;28;20193;-75
2024/03/01 01:05:15;;;;;;;8.45;4.97;;;;;;;;;;5050721;28;20590;-75
2024/03/01 01:07:41;;;;;;;10.00;4.85;;;;;;;;;;5062937;28;20215;-77
2024/03/01 01:10:08;;;;;;;9.13;5.43;;;;;;;;;;5066411;28;20565;-76
2024/03/01 01:12:33;;;;;;;8.25;5.15;;;;;;;;;;5058050;28;20360;-76
2024/03/01 01:15:00;;;;;;;7.10;5.03;;;;;;;;;;5065735;28;20372;-76
2024/03/01 01:17:29;;;;;;;9.50;5.55;;;;;;;;;;5059352;28;20217;-76
2024/03/01 01:19:56;;;;;;;8.63;4.80;;;;;;;;;;5041928;28;20555;-76
2024/03/01 01:22:22;;;;;;;8.60;5.53;;;;;;;;;;5067094;28;20680;-76
2024/03/01 01:24:47;;;;;;;9.57;5.55;;;;;;;;;;5049127;28;20199;-76
2024/03/01 01:27:13;;;;;;;10.40;6.05;;;;;;;;;;5062322;28;20192;-77
2024/03/01 01:29:38;;;;;;;8.77;5.65;;;;;;;;;;5052560;28;20209;-76
2024/03/01 01:32:04;;;;;;;10.13;6.00;;;;;;;;;;5045555;28;20244;-76
2024/03/01 01:34:29;;;;;;;9.77;5.72;;;;;;;;;;5047724;28;20224;-76
2024/03/01 01:36:55;;;;;;;9.18;5.68;;;;;;;;;;5043636;28;20649;-76
2024/03/01 01:39:21;;;;;;;9.57;6.32;;;;;;;;;;5046959;28;20189;-76
2024/03/01 01:41:46;;;;;;;10.60;6.38;;;;;;;;;;5048376;28;20192;-75
2024/03/01 01:44:12;;;;;;;13.10;6.65;;;;;;;;;;5061960;28;20505;-76
2024/03/01 01:46:37;;;;;;;11.63;5.85;;;;;;;;;;5068608;28;20189;-76
2024/03/01 01:49:04;;;;;;;9.63;6.07;;;;;;;;;;5061152;28;20189;-76
2024/03/01 01:51:30;;;;;;;10.48;6.78;;;;;;;;;;5066624;28;20859;-76
2024/03/01 01:53:56;;;;;;;10.93;6.40;;;;;;;;;;5048466;28;20288;-76
2024/03/01 01:56:21;;;;;;;11.68;7.18;;;;;;;;;;5042949;28;20317;-76
2024/03/01 01:58:47;;;;;;;9.15;6.40;;;;;;;;;;5061674;28;20266;-76
2024/03/01 02:01:15;;;;;;;11.15;7.05;;;;;;;;;;5068567;28;20192;-76
2024/03/01 02:03:40;;;;;;;13.10;7.30;;;;;;;;;;5066229;28;20401;-76
2024/03/01 02:06:06;;;;;;;12.38;7.43;;;;;;;;;;5068111;28;20288;-76
2024/03/01 02:08:33;;;;;;;12.50;7.22;;;;;;;;;;5047158;28;20195;-76
2024/03/01 02:10:59;;;;;;;13.32;7.82;;;;;;;;;;5061610;28;20250;-76
2024/03/01 02:13:25;;;;;;;12.07;7.22;;;;;;;;;;5065306;28;20217;-76
2024/03/01 02:15:52;;;;;;;12.15;7.75;;;;;;;;;;5068372;28;20184;-76
2024/03/01 02:18:17;;;;;;;11.18;7.85;;;;;;;;;;5051554;28;20292;-76
2024/03/01 02:21:09;;;;;;;12.50;7.70;;;;;;;;;;5065277;28;20267;-76
2024/03/01 02:23:35;;;;;;;13.48;8.65;;;;;;;;;;5048721;28;20542;-76
2024/03/01 02:26:01;;;;;;;12.85;8.98;;;;;;;;;;5063611;28;20611;-76
2024/03/01 02:28:27;;;;;;;14.95;8.43;;;;;;;;;;5058133;28;20229;-76
2024/03/01 02:30:52;;;;;;;12.57;8.60;;;;;;;;;;5064437;28;20452;-75
2024/03/01 02:33:21;;;;;;;12.73;8.05;;;;;;;;;;5041814;28;20200;-76
2024/03/01 02:35:47;;;;;;;13.00;9.00;;;;;;;;;;5056513;28;20228;-75
2024/03/01 02:38:13;;;;;;;15.68;8.45;;;;;;;;;;5047958;28;20197;-76
2024/03/01 02:40:39;;;;;;;12.18;7.97;;;;;;;;;;5058707;28;20774;-76
2024/03/01 02:43:06;;;;;;;13.07;8.55;;;;;;;;;;5050757;28;20257;-76
2024/03/01 02:45:32;;;;;;;12.02;7.97;;;;;;;;;;5069506;28;20200;-76
2024/03/01 02:47:58;;;;;;;12.77;8.63;;;;;;;;;;5056744;28;20193;-76
2024/03/01 02:50:23;;;;;;;14.45;9.25;;;;;;;;;;5035877;28;20615;-76
2024/03/01 02:52:49;;;;;;;16.48;8.75;;;;;;;;;;5068629;28;20214;-74
2024/03/01 02:55:20;;;;;;;12.55;8.52;;;;;;;;;;5060724;28;20235;-76
2024/03/01 02:57:50;;;;;;;12.55;8.45;;;;;;;;;;5063527;28;20213;-75
2024/03/01 03:00:16;;;;;;;12.95;8.25;;;;;;;;;;5040838;28;20553;-75
2024/03/01 03:02:41;;;;;;;13.95;8.88;;;;;;;;;;5065649;28;20625;-74
2024/03/01 03:05:07;;;;;;;15.38;9.15;;;;;;;;;;5058033;28;20196;-75
2024/03/01 03:07:33;;;;;;;13.73;8.90;;;;;;;;;;5067844;28;20193;-74
2024/03/01 03:09:59;;;;;;;14.18;8.70;;;;;;;;;;5061896;28;20478;-75
2024/03/01 03:12:25;;;;;;;15.07;8.88;;;;;;;;;;5070974;28;20188;-75
2024/03/01 03:14:51;;;;;;;14.45;9.77;;;;;;;;;;5063547;28;20254;-75
2024/03/01 03:17:17;;;;;;;13.90;9.13;;;;;;;;;;5069582;28;20204;-75
2024/03/01 03:19:43;;;;;;;13.60;8.63;;;;;;;;;;5053441;28;20248;-76
2024/03/01 03:22:08;;;;;;;17.05;9.07;;;;;;;;;;5049679;28;20192;-75
2024/03/01 03:24:35;;;;;;;15.15;9.20;;;;;;;;;;5046109;28;20189;-75
2024/03/01 03:27:01;;;;;;;14.65;9.70;;;;;;;;;;5054921;28;20208;-75
2024/03/01 03:29:26;;;;;;;17.17;10.07;;;;;;;;;;5050693;28;20189;-75
2024/03/01 03:31:52;;;;;;;17.80;9.88;;;;;;;;;;5065587;28;20231;-75
2024/03/01 03:34:17;;;;;;;15.98;9.55;;;;;;;;;;5066785;28;20228;-74
2024/03/01 03:36:43;;;;;;;17.00;9.77;;;;;;;;;;5045208;28;20252;-75
2024/03/01 03:39:09;;;;;;;16.42;9.80;;;;;;;;;;5066630;28;20530;-75
2024/03/01 03:41:34;;;;;;;16.23;9.98;;;;;;;;;;5048452;28;21323;-75
2024/03/01 03:44:00;;;;;;;14.63;9.65;;;;;;;;;;5053166;28;20208;-75
2024/03/01 03:46:26;;;;;;;16.52;10.00;;;;;;;;;;5061892;28;20209;-75
2024/03/01 03:48:51;;;;;;;15.00;8.65;;;;;;;;;;5050992;28;20197;-75
2024/03/01 03:51:27;;;;;;;14.60;9.48;;;;;;;;;;5053700;28;20185;-75
2024/03/01 03:53:56;;;;;;;15.70;9.70;;;;;;;;;;5055879;28;20193;-76
2024/03/01 03:56:25;;;;;;;17.85;9.75;;;;;;;;;;5051975;28;20692;-76
2024/03/01 03:58:51;;;;;;;16.73;10.18;;;;;;;;;;5050334;28;20657;-76
2024/03/01 04:01:17;;;;;;;17.90;9.60;;;;;;;;;;5062308;28;20252;-75
2024/03/01 04:03:43;;;;;;;18.67;10.43;;;;;;;;;;5061363;28;20196;-75
2024/03/01 04:06:09;;;;;;;15.15;9.85;;;;;;;;;;5066596;28;20261;-75
2024/03/01 04:08:38;;;;;;;16.05;9.75;;;;;;;;;;5062739;28;20190;-75
2024/03/01 04:11:05;;;;;;;19.55;10.50;;;;;;;;;;5066353;28;20238;-76
2024/03/01 04:13:32;;;;;;;20.13;10.32;;;;;;;;;;5057414;28;20223;-76
2024/03/01 04:15:58;;;;;;;17.77;10.82;;;;;;;;;;5046158;28;20254;-76
2024/03/01 04:18:27;;;;;;;19.00;11.15;;;;;;;;;;5048867;28;20239;-76
2024/03/01 04:20:57;;;;;;;19.63;11.43;;;;;;;;;;5062266;28;20193;-76
2024/03/01 04:23:23;;;;;;;15.80;9.85;;;;;;;;;;5044765;28;20576;-76
2024/03/01 04:25:51;;;;;;;18.40;11.27;;;;;;;;;;5059028;28;20197;-75
2024/03/01 04:28:23;;;;;;;19.13;10.43;;;;;;;;;;5065668;28;20227;-75
2024/03/01 04:30:49;;;;;;;18.15;10.55;;;;;;;;;;5060081;28;20287;-74
2024/03/01 04:33:14;;;;;;;16.60;10.13;;;;;;;;;;5055969;28;20264;-75
2024/03/01 04:35:41;;;;;;;17.75;10.38;;;;;;;;;;5057401;28;20323;-75
2024/03/01 04:38:06;;;;;;;16.17;10.35;;;;;;;;;;5064535;28;20676;-75
2024/03/01 04:40:32;;;;;;;19.23;11.52;;;;;;;;;;5062613;28;20280;-75
2024/03/01 04:42:59;;;;;;;18.77;10.45;;;;;;;;;;5064035;28;20724;-76
2024/03/01 04:45:28;;;;;;;17.58;9.57;;;;;;;;;;5056100;28;20201;-76
2024/03/01 04:47:53;;;;;;;19.23;11.50;;;;;;;;;;5056670;28;20180;-76
2024/03/01 04:50:19;;;;;;;16.98;10.65;;;;;;;;;;5077553;28;20555;-76
2024/03/01 04:52:45;;;;;;;16.65;9.93;;;;;;;;;;5052295;28;20284;-75
2024/03/01 04:55:10;;;;;;;15.48;10.57;;;;;;;;;;5060394;28;20674;-75
2024/03/01 04:57:36;;;;;;;17.92;10.38;;;;;;;;;;5055174;28;20201;-76
2024/03/01 05:00:15;;;;;;;15.13;9.90;;;;;;;;;;5067806;28;20277;-75
2024/03/01 05:02:42;;;;;;;16.23;10.30;;;;;;;;;;5041309;28;20279;-75
2024/03/01 05:05:11;;;;;;;18.15;9.90;;;;;;;;;;5056652;28;20251;-75
2024/03/01 05:07:38;;;;;;;15.85;10.00;;;;;;;;;;5058755;28;20189;-75
2024/03/01 05:10:08;;;;;;;16.17;10.20;;;;;;;;;;5047290;28;20193;-76
2024/03/01 05:12:37;;;;;;;16.75;9.00;;;;;;;;;;5056021;28;20184;-75
2024/03/01 05:15:07;;;;;;;16.00;10.07;;;;;;;;;;5067388;28;20192;-75
2024/03/01 05:17:34;;;;;;;16.48;9.57;;;;;;;;;;5054208;28;20325;-75
2024/03/01 05:20:00;;;;;;;17.13;10.13;;;;;;;;;;5064145;28;20246;-75
2024/03/01 05:22:26;;;;;;;17.17;10.60;;;;;;;;;;5062465;28;20332;-75
2024/03/01 05:24:51;;;;;;;17.15;10.35;;;;;;;;;;5047573;28;20557;-74
2024/03/01 05:27:17;;;;;;;14.57;9.57;;;;;;;;;;5064708;28;20185;-77
2024/03/01 05:29:42;;;;;;;14.25;9.55;;;;;;;;;;5060494;28;20204;-77
2024/03/01 05:32:08;;;;;;;15.32;9.57;;;;;;;;;;5043833;28;20609;-77
2024/03/01 05:34:34;;;;;;;14.18;9.60;;;;;;;;;;5060169;28;20307;-76
2024/03/01 05:36:59;;;;;;;16.75;10.05;;;;;;;;;;5078929;28;20355;-76
2024/03/01 05:39:25;;;;;;;17.30;10.15;;;;;;;;;;5054616;28;20727;-76
2024/03/01 05:41:50;;;;;;;15.07;9.68;;;;;;;;;;5053655;28;20595;-76
2024/03/01 05:44:16;;;;;;;15.98;9.70;;;;;;;;;;5058493;28;20412;-76
2024/03/01 05:46:42;;;;;;;14.27;9.38;;;;;;;;;;5055805;28;20190;-74
2024/03/01 05:49:12;;;;;;;17.10;10.15;;;;;;;;;;5062303;28;20189;-76
2024/03/01 05:51:38;;;;;;;19.27;10.63;;;;;;;;;;5046575;28;20193;-78
2024/03/01 05:54:04;;;;;;;15.90;9.70;;;;;;;;;;5069369;28;20209;-76
2024/03/01 05:56:30;;;;;;;14.32;9.43;;;;;;;;;;5069646;28;20212;-76
2024/03/01 05:58:56;;;;;;;17.45;10.02;;;;;;;;;;5065798;28;20222;-76
2024/03/01 06:01:23;;;;;;;14.10;9.40;;;;;;;;;;5065765;28;20277;-76
2024/03/01 06:03:48;;;;;;;15.77;9.30;;;;;;;;;;5060158;28;20555;-76
2024/03/01 06:06:15;;;;;;;16.73;10.27;;;;;;;;;;5065452;28;20188;-76
2024/03/01 06:08:41;;;;;;;16.92;10.20;;;;;;;;;;5059533;28;20201;-75
2024/03/01 06:11:10;;;;;;;15.60;9.80;;;;;;;;;;5046467;28;20220;-77
2024/03/01 06:13:36;;;;;;;14.63;9.52;;;;;;;;;;5052284;28;20194;-74
2024/03/01 06:16:02;;;;;;;17.33;10.85;;;;;;;;;;5059668;28;22082;-75
2024/03/01 06:18:27;;;;;;;15.90;10.65;;;;;;;;;;5060833;28;20243;-76
2024/03/01 06:20:53;;;;;;;16.17;10.27;;;;;;;;;;5059876;28;20190;-75
2024/03/01 06:23:18;;;;;;;16.05;10.15;;;;;;;;;;5061781;28;20574;-75
2024/03/01 06:25:44;;;;;;;17.52;10.13;;;;;;;;;;5060381;28;20196;-75
2024/03/01 06:28:09;;;;;;;16.25;10.48;;;;;;;;;;5061331;28;20181;-74
2024/03/01 06:30:35;;;;;;;17.35;11.30;;;;;;;;;;5057625;28;20189;-75
2024/03/01 06:33:00;;;;;;;16.35;10.00;;;;;;;;;;5060795;28;20250;-75
2024/03/01 06:35:26;;;;;;;15.48;9.93;;;;;;;;;;5061725;28;20237;-75
2024/03/01 06:37:51;;;;;;;16.50;9.60;;;;;;;;;;5066129;28;20214;-75
2024/03/01 06:40:17;;;;;;;13.88;9.00;;;;;;;;;;5066783;28;20184;-75
2024/03/01 06:42:42;;;;;;;13.48;9.05;;;;;;;;;;5068742;28;20220;-76
2024/03/01 06:45:09;;;;;;;12.48;9.40;;;;;;;;;;5076083;28;20191;-75
2024/03/01 06:47:35;;;;;;;13.88;9.27;;;;;;;;;;5071957;28;20640;-75
2024/03/01 06:50:01;;;;;;;14.98;9.38;;;;;;;;;;5069811;28;20196;-75
2024/03/01 06:52:26;;;;;;;13.65;9.45;;;;;;;;;;5056091;28;20215;-75
2024/03/01 06:54:52;;;;;;;17.67;9.60;;;;;;;;;;5064824;28;20540;-75
2024/03/01 06:57:17;;;;;;;18.38;9.55;;;;;;;;;;5062550;28;20220;-75
2024/03/01 06:59:43;;;;;;;15.80;9.80;;;;;;;;;;5071543;28;20197;-75
2024/03/01 07:02:09;;;;;;;14.15;9.00;;;;;;;;;;5072114;28;20207;-75
2024/03/01 07:04:34;;;;;;;12.15;8.02;;;;;;;;;;5070060;28;20630;-74
2024/03/01 07:07:00;;;;;;;11.93;7.63;;;;;;;;;;5062830;28;20277;-75
2024/03/01 07:09:25;;;;;;;11.50;7.47;;;;;;;;;;5066652;28;20189;-76
2024/03/01 07:11:51;;;;;;;13.65;7.20;;;;;;;;;;5047327;28;20197;-75
2024/03/01 07:14:16;;;;;;;9.93;6.22;;;;;;;;;;5068239;28;20602;-75
2024/03/01 07:16:42;;;;;;;6.47;5.15;;;;;;;;;;5075862;28;20219;-75
2024/03/01 07:19:07;;;;;;;6.68;4.68;;;;;;;;;;5068069;28;20224;-75
2024/03/01 07:21:33;;;;;;;3.58;2.97;;;;;;;;;;5050593;28;20188;-76
2024/03/01 07:23:58;;;;;;;2.92;2.17;;;;;;;;;;5047028;28;20197;-75
2024/03/01 07:26:24;;;;;;;3.03;2.50;;;;;;;;;;5068239;28;20169;-74
2024/03/01 07:28:49;;;;;;;3.72;2.08;;;;;;;;;;5067847;28;20189;-74
2024/03/01 07:31:14;;;;;;;2.92;2.35;;;;;;;;;;5051521;28;20177;-76
2024/03/01 07:33:40;;;;;;;3.33;2.35;;;;;;;;;;5070054;28;20188;-76
2024/03/01 07:36:06;;;;;;;4.72;2.88;;;;;;;;;;5058577;28;20244;-75
2024/03/01 07:38:32;;;;;;;4.45;2.75;;;;;;;;;;5067195;28;20275;-75
2024/03/01 07:40:58;;;;;;;3.40;2.80;;;;;;;;;;5054972;28;20276;-75
2024/03/01 07:43:24;;;;;;;5.55;3.03;;;;;;;;;;5065382;28;20205;-75
2024/03/01 07:45:49;;;;;;;5.95;3.47;;;;;;;;;;5062702;28;20210;-75
2024/03/01 07:48:15;;;;;;;3.92;3.00;;;;;;;;;;5059567;28;20197;-75
2024/03/01 07:50:41;;;;;;;4.47;2.97;;;;;;;;;;5066786;28;20189;-75
2024/03/01 07:53:07;;;;;;;5.57;2.60;;;;;;;;;;5067498;28;20254;-75
2024/03/01 07:55:32;;;;;;;3.97;2.42;;;;;;;;;;5065678;28;20185;-76
2024/03/01 07:57:58;;;;;;;4.70;2.05;;;;;;;;;;5080085;28;20759;-75
2024/03/01 08:00:23;;;;;;;3.53;2.10;;;;;;;;;;5080061;28;20192;-75
2024/03/01 08:03:00;;;;;;;4.10;1.83;;;;;;;;;;5054482;28;21412;-76
2024/03/01 08:05:25;;;;;;;5.32;1.77;;;;;;;;;;5054044;28;20659;-75
2024/03/01 08:07:51;;;;;;;5.15;1.90;;;;;;;;;;5062046;28;20727;-75
2024/03/01 08:10:16;;;;;;;8.10;2.03;;;;;;;;;;5067639;28;20196;-76
2024/03/01 08:12:41;;;;;;;3.05;1.40;;;;;;;;;;5067754;28;20188;-75
2024/03/01 08:15:09;;;;;;;4.05;1.77;;;;;;;;;;5067774;28;20220;-76
2024/03/01 08:17:36;;;;;;;3.35;1.83;;;;;;;;;;5066377;28;20207;-75
2024/03/01 08:20:10;;;;;;;1.75;1.60;;;;;;;;;;5068216;28;20581;-75
2024/03/01 08:22:35;;;;;;;3.63;1.52;;;;;;;;;;5067542;28;20195;-75
2024/03/01 08:25:06;;;;;;;1.60;1.45;;;;;;;;;;5067089;28;20188;-75
2024/03/01 08:27:32;;;;;;;1.40;1.30;;;;;;;;;;5068741;28;20185;-75
2024/03/01 08:29:57;;;;;;;5.50;1.65;;;;;;;;;;5039291;28;20192;-75
2024/03/01 08:32:39;;;;;;;1.90;1.38;;;;;;;;;;5066140;28;20500;-76
2024/03/01 08:35:04;;;;;;;2.92;1.38;;;;;;;;;;5062897;28;20235;-76
2024/03/01 08:37:31;;;;;;;2.80;1.65;;;;;;;;;;5064488;28;20200;-76
2024/03/01 08:39:56;;;;;;;4.03;1.60;;;;;;;;;;5060719;28;20189;-76
2024/03/01 08:42:24;;;;;;;2.03;1.60;;;;;;;;;;5066433;28;20287;-76
2024/03/01 08:44:59;;;;;;;2.53;1.63;;;;;;;;;;5066844;28;20193;-76
2024/03/01 08:47:34;;;;;;;3.42;1.85;;;;;;;;;;5053497;28;20212;-76
2024/03/01 08:50:18;;;;;;;3.38;2.30;;;;;;;;;;5067303;28;20215;-76
2024/03/01 08:52:43;;;;;;;5.97;2.83;;;;;;;;;;5068861;28;20193;-76
2024/03/01 08:55:09;;;;;;;4.15;3.00;;;;;;;;;;5065217;28;20257;-76
2024/03/01 08:57:36;;;;;;;4.90;3.22;;;;;;;;;;5066403;28;20221;-76
2024/03/01 09:00:04;;;;;;;5.85;3.70;;;;;;;;;;5068882;28;20543;-76
2024/03/01 09:02:39;;;;;;;6.45;4.00;;;;;;;;;;5066302;28;20226;-76
2024/03/01 09:05:04;;;;;;;5.40;3.78;;;;;;;;;;5055149;28;20274;-76
2024/03/01 09:07:31;;;;;;;6.75;3.72;;;;;;;;;;5050405;28;20230;-76
2024/03/01 09:09:57;;;;;;;5.85;3.92;;;;;;;;;;5065415;28;20197;-76
2024/03/01 09:12:27;;;;;;;5.03;3.60;;;;;;;;;;5053858;28;20195;-76
2024/03/01 09:15:00;;;;;;;4.15;3.28;;;;;;;;;;5065404;28;20605;-76
2024/03/01 09:17:27;;;;;;;5.93;4.00;;;;;;;;;;5067011;28;20212;-76
2024/03/01 09:19:53;;;;;;;5.63;3.83;;;;;;;;;;5062838;28;20209;-76
2024/03/01 09:22:19;;;;;;;7.70;4.43;;;;;;;;;;5065814;28;20619;-76
2024/03/01 09:24:45;;;;;;;6.22;4.00;;;;;;;;;;5067175;28;20228;-76
2024/03/01 09:27:16;;;;;;;5.80;4.03;;;;;;;;;;5073885;28;20180;-76
2024/03/01 09:29:46;;;;;;;7.72;4.10;;;;;;;;;;5045871;28;20199;-76
2024/03/01 09:32:14;;;;;;;5.82;3.88;;;;;;;;;;5070918;28;20196;-76
2024/03/01 09:34:40;;;;;;;5.90;3.75;;;;;;;;;;5071929;28;20229;-76
2024/03/01 09:37:11;;;;;;;5.00;3.90;;;;;;;;;;5067398;28;20221;-76
2024/03/01 09:39:38;;;;;;;7.00;4.40;;;;;;;;;;5065312;28;20255;-76
2024/03/01 09:42:32;;;;;;;5.40;3.72;;;;;;;;;;5069764;28;20180;-76
2024/03/01 09:45:19;;;;;;;5.70;4.22;;;;;;;;;;5058932;28;20603;-75
2024/03/01 09:48:07;;;;;;;6.90;4.20;;;;;;;;;;5070192;28;20208;-76
2024/03/01 09:50:50;;;;;;;5.88;4.30;;;;;;;;;;5060113;28;20189;-76
2024/03/01 09:53:41;;;;;;;5.38;4.28;;;;;;;;;;5059446;28;20613;-75
2024/03/01 09:56:34;;;;;;;7.47;3.97;;;;;;;;;;5066320;28;20180;-76
2024/03/01 09:59:10;;;;;;;6.00;4.13;;;;;;;;;;5068203;28;20188;-75
2024/03/01 10:01:40;;;;;;;5.47;3.35;;;;;;;;;;5069854;28;20203;-75
2024/03/01 10:04:33;;;;;;;5.25;3.92;;;;;;;;;;5067193;28;20630;-76
2024/03/01 10:07:31;;;;;;;8.00;3.28;;;;;;;;;;5065498;28;20193;-75
2024/03/01 10:10:27;;;;;;;5.18;3.50;;;;;;;;;;5057964;28;20229;-75
2024/03/01 10:13:09;;;;;;;4.78;3.22;;;;;;;;;;5082834;28;20184;-75
2024/03/01 10:15:41;;;;;;;4.75;3.30;;;;;;;;;;5063612;28;20678;-75
2024/03/01 10:18:12;;;;;;;4.18;2.95;;;;;;;;;;5063684;28;20884;-75
2024/03/01 10:20:51;;;;;;;5.47;3.00;;;;;;;;;;5078153;28;20686;-76
2024/03/01 10:23:42;;;;;;;3.70;2.83;;;;;;;;;;5070246;28;20238;-75
2024/03/01 10:26:30;;;;;;;5.13;2.85;;;;;;;;;;5067813;28;20224;-75
2024/03/01 10:29:14;;;;;;;11.63;2.80;;;;;;;;;;5068785;28;20559;-75
2024/03/01 10:31:41;;;;;;;6.10;3.00;;;;;;;;;;5049057;28;20203;-76
2024/03/01 10:34:22;;;;;;;7.78;3.28;;;;;;;;;;5070180;28;20224;-75
2024/03/01 10:36:54;;;;;;;4.25;3.03;;;;;;;;;;5069320;28;20516;-76
2024/03/01 10:39:39;;;;;;;5.13;3.13;;;;;;;;;;5069571;28;20177;-76
2024/03/01 10:42:15;;;;;;;6.65;4.32;;;;;;;;;;5039517;28;20622;-76
2024/03/01 10:44:45;;;;;;;6.32;4.47;;;;;;;;;;5059330;28;20188;-76
2024/03/01 10:47:20;;;;;;;6.13;4.45;;;;;;;;;;5069133;28;20252;-76
2024/03/01 10:50:06;;;;;;;7.15;4.80;;;;;;;;;;5068560;28;20235;-76
2024/03/01 10:52:37;;;;;;;8.98;5.35;;;;;;;;;;5052484;28;20177;-75
2024/03/01 10:55:05;;;;;;;7.53;4.95;;;;;;;;;;5069590;28;20212;-75
2024/03/01 10:57:36;;;;;;;7.93;4.82;;;;;;;;;;5069828;28;20208;-76
2024/03/01 11:00:07;;;;;;;7.60;5.60;;;;;;;;;;5069868;28;20273;-75
2024/03/01 11:02:40;;;;;;;7.40;5.25;;;;;;;;;;5069386;28;20643;-76
2024/03/01 11:05:32;;;;;;;10.13;5.25;;;;;;;;;;5074108;28;20237;-75
2024/03/01 11:08:25;;;;;;;9.32;5.40;;;;;;;;;;5049757;28;20185;-76
2024/03/01 11:10:57;;;;;;;7.18;5.22;;;;;;;;;;5055185;28;20186;-76
2024/03/01 11:13:25;;;;;;;9.80;5.40;;;;;;;;;;5063486;28;20237;-75
2024/03/01 11:15:51;;;;;;;7.15;4.85;;;;;;;;;;5068004;28;20192;-75
2024/03/01 11:18:25;;;;;;;8.27;5.45;;;;;;;;;;5038921;28;20676;-75
2024/03/01 11:21:09;;;;;;;6.72;4.70;;;;;;;;;;5043036;28;20202;-75
2024/03/01 11:23:52;;;;;;;10.52;5.22;;;;;;;;;;5047229;28;20173;-76
2024/03/01 11:26:26;;;;;;;8.27;5.53;;;;;;;;;;5067115;28;20192;-75
2024/03/01 11:29:07;;;;;;;9.55;5.88;;;;;;;;;;5055046;28;20472;-75
2024/03/01 11:31:39;;;;;;;8.95;5.80;;;;;;;;;;5065481;28;20275;-75
2024/03/01 11:34:21;;;;;;;7.80;5.30;;;;;;;;;;5036784;28;20256;-75
2024/03/01 11:37:05;;;;;;;7.85;5.30;;;;;;;;;;5065595;28;20209;-75
2024/03/01 11:39:39;;;;;;;8.82;4.93;;;;;;;;;;5058199;28;20465;-76
2024/03/01 11:42:17;;;;;;;8.20;4.43;;;;;;;;;;5063901;28;20224;-76
2024/03/01 11:44:56;;;;;;;6.88;4.03;;;;;;;;;;5069505;28;20275;-75
2024/03/01 11:47:39;;;;;;;6.50;4.20;;;;;;;;;;5068639;28;20196;-76
2024/03/01 11:50:30;;;;;;;7.45;4.30;;;;;;;;;;5069867;28;20648;-76
2024/03/01 11:53:11;;;;;;;6.05;4.20;;;;;;;;;;5054062;28;20188;-76
2024/03/01 11:56:04;;;;;;;8.20;4.07;;;;;;;;;;5069351;28;20250;-75
2024/03/01 11:58:53;;;;;;;7.70;3.92;;;;;;;;;;5037913;28;20189;-75
2024/03/01 12:01:40;;;;;;;7.28;3.67;;;;;;;;;;5082269;28;20280;-75
2024/03/01 12:04:50;;;;;;;8.27;3.15;;;;;;;;;;5069794;28;20192;-75
2024/03/01 12:07:56;;;;;;;5.60;3.00;;;;;;;;;;5052204;28;20612;-75
2024/03/01 12:10:37;;;;;;;8.35;3.70;;;;;;;;;;5065548;28;20181;-75
2024/03/01 12:13:08;;;;;;;7.68;3.22;;;;;;;;;;5068169;28;20588;-75
2024/03/01 12:15:43;;;;;;;7.10;3.33;;;;;;;;;;5067266;28;20576;-74
2024/03/01 12:18:36;;;;;;;6.28;3.10;;;;;;;;;;5051432;28;20222;-74
2024/03/01 12:21:19;;;;;;;4.95;3.45;;;;;;;;;;5063748;28;20514;-74
2024/03/01 12:23:59;;;;;;;3.70;2.90;;;;;;;;;;5047734;28;20270;-74
2024/03/01 12:26:32;;;;;;;5.47;2.83;;;;;;;;;;5060352;28;20191;-74
2024/03/01 12:29:09;;;;;;;4.13;2.60;;;;;;;;;;5067128;28;20275;-75
2024/03/01 12:31:54;;;;;;;6.95;2.65;;;;;;;;;;5036094;28;20192;-75
2024/03/01 12:34:40;;;;;;;6.82;2.53;;;;;;;;;;5068716;28;20232;-75
2024/03/01 12:37:32;;;;;;;8.35;2.80;;;;;;;;;;5049623;28;20284;-75
2024/03/01 12:40:16;;;;;;;4.32;2.22;;;;;;;;;;5058679;28;20246;-75
2024/03/01 12:42:53;;;;;;;4.53;2.47;;;;;;;;;;5060747;28;20696;-75
2024/03/01 12:45:48;;;;;;;3.58;2.65;;;;;;;;;;5060470;28;20188;-75
2024/03/01 12:48:38;;;;;;;4.75;2.17;;;;;;;;;;5067309;28;20628;-75
2024/03/01 12:51:16;;;;;;;3.88;2.00;;;;;;;;;;5066757;28;20181;-75
2024/03/01 12:53:57;;;;;;;4.63;2.60;;;;;;;;;;5065398;28;20540;-76
2024/03/01 12:56:34;;;;;;;3.35;1.92;;;;;;;;;;5067587;28;20212;-75
2024/03/01 12:59:12;;;;;;;3.80;1.85;;;;;;;;;;5055577;28;20197;-75
2024/03/01 13:01:55;;;;;;;3.08;2.08;;;;;;;;;;5056579;28;20333;-76
2024/03/01 13:04:21;;;;;;;7.20;2.05;;;;;;;;;;5065687;28;20262;-75
2024/03/01 13:06:48;;;;;;;4.35;2.05;;;;;;;;;;5060513;28;20235;-75
2024/03/01 13:09:19;;;;;;;4.30;2.45;;;;;;;;;;5048698;28;20176;-76
2024/03/01 13:11:49;;;;;;;3.35;2.20;;;;;;;;;;5054142;28;20533;-75
2024/03/01 13:14:20;;;;;;;3.40;1.63;;;;;;;;;;5066082;28;20181;-75
2024/03/01 13:16:48;;;;;;;1.98;1.67;;;;;;;;;;5068065;28;20213;-75
2024/03/01 13:19:25;;;;;;;6.00;2.08;;;;;;;;;;5065197;28;20207;-76
2024/03/01 13:22:04;;;;;;;5.10;1.90;;;;;;;;;;5041430;28;20216;-76
2024/03/01 13:24:47;;;;;;;3.92;1.55;;;;;;;;;;5035573;28;20185;-77
2024/03/01 13:27:42;;;;;;;3.53;1.70;;;;;;;;;;5059395;28;20216;-75
2024/03/01 13:30:20;;;;;;;1.80;1.42;;;;;;;;;;5056685;28;20272;-76
2024/03/01 13:33:08;;;;;;;4.95;1.60;;;;;;;;;;5063442;28;20199;-77
2024/03/01 13:35:36;;;;;;;3.60;1.85;;;;;;;;;;5060284;28;20307;-75
2024/03/01 13:38:12;;;;;;;4.40;1.80;;;;;;;;;;5066540;28;20196;-75
2024/03/01 13:40:46;;;;;;;4.45;1.80;;;;;;;;;;5055465;28;20192;-75
2024/03/01 13:43:19;;;;;;;2.38;1.40;;;;;;;;;;5068270;28;20213;-77
2024/03/01 13:45:52;;;;;;;2.25;1.77;;;;;;;;;;5062385;28;20211;-76
2024/03/01 13:48:23;;;;;;;4.40;1.70;;;;;;;;;;5067180;28;20188;-76
2024/03/01 13:50:49;;;;;;;2.70;1.20;;;;;;;;;;5067748;28;20315;-76
2024/03/01 13:53:16;;;;;;;3.15;1.50;;;;;;;;;;5069965;28;20290;-76
2024/03/01 13:55:43;;;;;;;3.53;1.90;;;;;;;;;;5052384;28;20198;-76
2024/03/01 13:58:09;;;;;;;3.72;1.40;;;;;;;;;;5064005;28;20718;-76
2024/03/01 14:00:36;;;;;;;2.92;1.30;;;;;;;;;;5046273;28;20571;-76
2024/03/01 14:03:05;;;;;;;1.45;1.05;;;;;;;;;;5058761;28;20291;-76
2024/03/01 14:05:31;;;;;;;2.95;1.30;;;;;;;;;;5043251;28;20272;-76
2024/03/01 14:07:58;;;;;;;2.60;1.35;;;;;;;;;;5044271;28;20268;-76
2024/03/01 14:10:24;;;;;;;4.15;1.33;;;;;;;;;;5044610;28;20242;-76
2024/03/01 14:12:50;;;;;;;3.83;1.23;;;;;;;;;;5058851;28;20619;-75
2024/03/01 14:15:17;;;;;;;2.10;1.10;;;;;;;;;;5047270;28;20196;-76
2024/03/01 14:17:44;;;;;;;3.50;1.40;;;;;;;;;;5049200;28;20260;-75
2024/03/01 14:20:15;;;;;;;2.53;0.95;;;;;;;;;;5060471;28;20217;-75
2024/03/01 14:22:45;;;;;;;2.05;0.93;;;;;;;;;;5061325;28;20189;-76
2024/03/01 14:25:15;;;;;;;1.45;0.90;;;;;;;;;;5045074;28;20552;-76
2024/03/01 14:27:48;;;;;;;2.50;0.85;;;;;;;;;;5047866;28;20185;-76
2024/03/01 14:30:18;;;;;;;1.85;1.10;;;;;;;;;;5060833;28;20270;-76
2024/03/01 14:32:45;;;;;;;2.67;1.08;;;;;;;;;;5063203;28;20754;-76
2024/03/01 14:35:24;;;;;;;1.52;0.80;;;;;;;;;;5046006;28;20220;-76
2024/03/01 14:37:51;;;;;;;2.83;1.10;;;;;;;;;;5062177;28;20281;-76
2024/03/01 14:40:17;;;;;;;4.03;1.02;;;;;;;;;;5066268;28;20177;-76
2024/03/01 14:42:48;;;;;;;3.08;1.10;;;;;;;;;;5063429;28;20197;-76
2024/03/01 14:45:17;;;;;;;1.48;0.90;;;;;;;;;;5065081;28;20593;-76
2024/03/01 14:47:54;;;;;;;2.17;1.10;;;;;;;;;;5057091;28;20193;-76
2024/03/01 14:50:24;;;;;;;1.75;0.80;;;;;;;;;;5046794;28;20185;-76
2024/03/01 14:52:54;;;;;;;2.38;1.13;;;;;;;;;;5048835;28;20647;-76
2024/03/01 14:55:22;;;;;;;3.50;1.10;;;;;;;;;;5062116;28;20195;-76